Time;durP1;ratioP1;P1;durP2;ratioP2;P2;SDS_P1;SDS_P2;PMS_P1;PMS_P2;Temp;Humidity;BMP_temperature;BMP_pressure;BME280_temperature;BME280_humidity;BME280_pressure;Samples;Min_cycle;Max_cycle;Signal;HPM_P1;HPM_P2
2022/01/14 00:01:38;;;;;;;36.10;14.85;;;6.80;81.00;;;;;;4844501;29;20528;-78
2022/01/14 00:04:04;;;;;;;30.70;14.13;;;6.90;81.10;;;;;;4875272;29;20057;-78
2022/01/14 00:06:29;;;;;;;27.23;14.90;;;6.80;81.00;;;;;;4876006;29;20053;-77
2022/01/14 00:09:05;;;;;;;28.00;14.35;;;6.80;81.00;;;;;;4843476;29;20041;-77
2022/01/14 00:11:32;;;;;;;30.55;14.45;;;6.80;81.00;;;;;;4861822;29;20053;-78
2022/01/14 00:16:29;;;;;;;28.42;14.15;;;6.80;81.00;;;;;;4865532;29;20078;-77
2022/01/14 00:18:57;;;;;;;34.95;16.15;;;6.80;81.10;;;;;;4859604;29;20053;-78
2022/01/14 00:21:23;;;;;;;35.40;15.65;;;6.80;81.10;;;;;;4858425;29;20053;-78
2022/01/14 00:23:52;;;;;;;34.78;16.23;;;6.80;81.20;;;;;;4865893;29;20045;-78
2022/01/14 00:31:53;;;;;;;35.88;16.65;;;6.90;81.20;;;;;;4860973;29;20057;-78
2022/01/14 00:34:18;;;;;;;35.60;16.55;;;6.80;81.20;;;;;;4850932;29;20061;-78
2022/01/14 00:36:45;;;;;;;33.63;17.23;;;6.80;81.20;;;;;;4853270;29;20089;-78
2022/01/14 00:39:13;;;;;;;34.30;16.83;;;6.80;81.20;;;;;;4843666;29;20054;-78
2022/01/14 00:41:39;;;;;;;29.58;15.45;;;6.90;81.30;;;;;;4860801;29;20363;-78
2022/01/14 00:44:10;;;;;;;35.67;16.75;;;6.90;81.30;;;;;;4844234;29;20076;-78
2022/01/14 00:46:42;;;;;;;36.70;18.25;;;6.90;81.50;;;;;;4874546;29;20129;-78
2022/01/14 00:49:08;;;;;;;34.20;16.90;;;6.90;81.30;;;;;;4843406;29;20053;-78
2022/01/14 00:51:35;;;;;;;39.65;18.70;;;6.90;81.20;;;;;;4861089;29;20057;-78
2022/01/14 00:54:02;;;;;;;34.97;17.83;;;6.90;81.20;;;;;;4860297;29;20053;-78
2022/01/14 00:56:33;;;;;;;41.35;18.23;;;6.90;81.20;;;;;;4861581;29;20060;-78
2022/01/14 00:59:14;;;;;;;32.35;16.20;;;6.90;81.10;;;;;;4847408;29;20052;-78
2022/01/14 01:01:50;;;;;;;35.05;18.08;;;6.90;81.20;;;;;;4878262;29;20132;-78
2022/01/14 01:04:26;;;;;;;35.63;18.48;;;6.90;81.20;;;;;;4862512;29;20053;-78
2022/01/14 01:06:52;;;;;;;34.78;17.73;;;6.90;81.20;;;;;;4864758;29;20057;-78
2022/01/14 01:09:20;;;;;;;34.90;17.77;;;6.90;81.10;;;;;;4863684;29;20490;-78
2022/01/14 01:11:52;;;;;;;36.08;18.27;;;6.90;81.10;;;;;;4847462;29;20057;-78
2022/01/14 01:14:38;;;;;;;37.83;20.02;;;6.90;81.10;;;;;;4863907;29;20095;-77
2022/01/14 01:17:04;;;;;;;34.28;18.27;;;7.10;81.20;;;;;;4860006;29;20128;-78
2022/01/14 01:19:30;;;;;;;37.33;20.08;;;6.90;81.10;;;;;;4859974;29;20053;-78
2022/01/14 01:21:56;;;;;;;33.85;18.70;;;6.90;81.10;;;;;;4878250;29;20406;-78
2022/01/14 01:24:22;;;;;;;35.42;19.20;;;6.90;81.10;;;;;;4863734;29;20050;-77
2022/01/14 01:26:50;;;;;;;35.88;19.15;;;6.90;81.10;;;;;;4863986;29;20045;-78
2022/01/14 01:29:42;;;;;;;35.00;19.30;;;6.90;81.10;;;;;;4846678;29;20060;-78
2022/01/14 01:32:05;;;;;;;33.33;19.15;;;6.90;81.10;;;;;;4863262;29;20128;-78
2022/01/14 01:34:31;;;;;;;42.00;21.10;;;6.90;81.00;;;;;;4863301;29;20058;-78
2022/01/14 01:36:58;;;;;;;30.83;19.02;;;6.90;81.00;;;;;;4863847;29;20072;-78
2022/01/14 01:39:27;;;;;;;35.42;20.55;;;6.90;81.10;;;;;;4877895;29;20482;-78
2022/01/14 01:42:00;;;;;;;35.42;20.25;;;6.90;81.10;;;;;;4863301;29;20050;-78
2022/01/14 01:44:28;;;;;;;36.20;20.67;;;6.90;81.00;;;;;;4846736;29;20124;-78
2022/01/14 01:46:55;;;;;;;41.97;22.52;;;7.00;81.10;;;;;;4863490;29;20124;-78
2022/01/14 01:49:25;;;;;;;35.55;21.50;;;6.90;81.00;;;;;;4863470;29;20061;-79
2022/01/14 01:51:52;;;;;;;38.63;21.55;;;6.90;81.00;;;;;;4863589;29;20083;-78
2022/01/14 01:54:20;;;;;;;34.08;19.52;;;6.90;81.00;;;;;;4848465;29;20053;-78
2022/01/14 01:56:46;;;;;;;37.97;19.95;;;6.90;80.90;;;;;;4863358;29;20077;-79
2022/01/14 01:59:12;;;;;;;31.27;18.98;;;6.90;80.90;;;;;;4846590;29;20493;-77
2022/01/14 02:01:39;;;;;;;30.77;18.75;;;6.90;80.90;;;;;;4862684;29;20046;-78
2022/01/14 02:04:05;;;;;;;30.50;17.92;;;7.00;81.00;;;;;;4833819;29;20053;-78
2022/01/14 02:06:32;;;;;;;34.85;19.85;;;6.90;80.90;;;;;;4862992;29;20056;-78
2022/01/14 02:08:58;;;;;;;35.25;19.65;;;6.90;80.90;;;;;;4861856;29;20038;-78
2022/01/14 02:11:24;;;;;;;31.80;20.10;;;6.90;80.80;;;;;;4846330;29;20045;-78
2022/01/14 02:13:54;;;;;;;31.23;18.27;;;7.00;80.80;;;;;;4862380;29;20041;-78
2022/01/14 02:16:32;;;;;;;31.85;18.15;;;7.00;80.80;;;;;;4843412;29;20443;-79
2022/01/14 02:27:08;;;;;;;35.22;18.35;;;6.90;80.60;;;;;;4847427;29;20510;-78
2022/01/14 02:29:33;;;;;;;31.85;18.50;;;6.90;80.60;;;;;;4844293;29;20494;-79
2022/01/14 02:31:59;;;;;;;33.63;18.63;;;6.90;80.60;;;;;;4836050;29;20128;-78
2022/01/14 02:34:25;;;;;;;33.10;18.90;;;6.90;80.70;;;;;;4840579;29;20057;-78
2022/01/14 02:36:52;;;;;;;32.13;18.02;;;6.90;80.60;;;;;;4851239;29;20245;-79
2022/01/14 02:39:20;;;;;;;36.58;19.85;;;6.90;80.60;;;;;;4838920;29;20107;-79
2022/01/14 02:41:48;;;;;;;35.65;17.42;;;6.90;80.60;;;;;;4842574;29;20131;-78
2022/01/14 02:44:23;;;;;;;25.98;16.50;;;6.90;80.60;;;;;;4858828;29;20085;-78
2022/01/14 02:46:56;;;;;;;31.58;17.33;;;6.90;80.60;;;;;;4846788;29;20091;-78
2022/01/14 02:49:25;;;;;;;34.45;17.70;;;6.90;80.60;;;;;;4843843;29;20485;-78
2022/01/14 02:51:51;;;;;;;33.72;17.77;;;6.90;80.60;;;;;;4845336;29;20057;-78
2022/01/14 02:54:21;;;;;;;31.58;17.40;;;6.90;80.60;;;;;;4858123;29;20045;-78
2022/01/14 02:56:51;;;;;;;32.65;18.00;;;6.90;80.60;;;;;;4850188;29;20085;-79
2022/01/14 02:59:18;;;;;;;33.08;18.23;;;6.90;80.60;;;;;;4855646;29;20052;-77
2022/01/14 03:01:46;;;;;;;30.42;17.13;;;6.90;80.60;;;;;;4862207;29;20086;-78
2022/01/14 03:04:15;;;;;;;33.90;18.35;;;6.90;80.60;;;;;;4861882;29;20482;-78
2022/01/14 03:06:41;;;;;;;30.15;16.77;;;6.90;80.50;;;;;;4845353;29;20041;-78
2022/01/14 03:09:07;;;;;;;31.30;16.48;;;6.90;80.50;;;;;;4862257;29;20049;-78
2022/01/14 03:11:35;;;;;;;29.38;16.33;;;6.90;80.50;;;;;;4846724;29;20049;-78
2022/01/14 03:14:02;;;;;;;30.88;18.10;;;6.90;80.40;;;;;;4876706;29;20057;-78
2022/01/14 03:16:29;;;;;;;27.05;16.67;;;6.90;80.40;;;;;;4844540;29;20087;-78
2022/01/14 03:19:05;;;;;;;29.05;16.20;;;6.90;80.50;;;;;;4846578;29;20089;-79
2022/01/14 03:21:36;;;;;;;28.08;16.05;;;6.90;80.40;;;;;;4845070;29;20370;-78
2022/01/14 03:24:14;;;;;;;28.95;16.00;;;6.90;80.40;;;;;;4860930;29;20041;-79
2022/01/14 03:26:40;;;;;;;29.30;16.67;;;6.90;80.40;;;;;;4839946;29;20481;-78
2022/01/14 03:29:06;;;;;;;29.77;17.48;;;6.90;80.40;;;;;;4861477;29;20037;-78
2022/01/14 03:31:31;;;;;;;30.58;16.95;;;6.90;80.40;;;;;;4861245;29;20354;-78
2022/01/14 03:33:57;;;;;;;30.55;17.17;;;6.90;80.40;;;;;;4876283;29;20057;-78
2022/01/14 03:36:23;;;;;;;35.10;18.95;;;6.80;80.30;;;;;;4861466;29;20074;-78
2022/01/14 03:38:49;;;;;;;38.13;18.25;;;6.90;80.40;;;;;;4844944;29;20045;-78
2022/01/14 03:41:14;;;;;;;29.45;18.45;;;6.90;80.30;;;;;;4861303;29;20128;-78
2022/01/14 03:43:41;;;;;;;29.63;17.33;;;6.80;80.30;;;;;;4861786;29;20403;-78
2022/01/14 03:46:07;;;;;;;35.05;19.08;;;6.90;80.40;;;;;;4860892;29;20048;-78
2022/01/14 03:48:33;;;;;;;34.58;18.95;;;6.80;80.40;;;;;;4861566;29;20049;-79
2022/01/14 03:50:59;;;;;;;31.30;18.40;;;6.80;80.30;;;;;;4860516;29;20042;-78
2022/01/14 03:53:25;;;;;;;30.15;17.52;;;6.80;80.30;;;;;;4875843;29;20174;-78
2022/01/14 03:55:51;;;;;;;29.48;17.38;;;6.80;80.40;;;;;;4844558;29;20049;-79
2022/01/14 03:58:16;;;;;;;36.22;19.02;;;6.80;80.40;;;;;;4861288;29;20030;-79
2022/01/14 04:00:42;;;;;;;30.35;18.23;;;6.80;80.40;;;;;;4843727;29;20052;-77
2022/01/14 04:03:08;;;;;;;30.77;17.33;;;6.80;80.40;;;;;;4861258;29;20050;-78
2022/01/14 04:05:35;;;;;;;31.20;18.13;;;6.80;80.40;;;;;;4874991;29;20056;-78
2022/01/14 04:08:00;;;;;;;29.60;16.70;;;6.80;80.50;;;;;;4860985;29;20049;-79
2022/01/14 04:10:27;;;;;;;32.25;17.20;;;6.80;80.40;;;;;;4861240;29;20060;-78
2022/01/14 04:13:03;;;;;;;26.25;16.60;;;6.80;80.40;;;;;;4875463;29;20056;-78
2022/01/14 04:15:44;;;;;;;29.95;17.30;;;6.80;80.40;;;;;;4860828;29;20442;-78
2022/01/14 04:18:16;;;;;;;28.23;16.23;;;6.80;80.40;;;;;;4875081;29;20054;-78
2022/01/14 04:20:47;;;;;;;31.05;17.20;;;6.80;80.50;;;;;;4861014;29;20048;-78
2022/01/14 04:23:14;;;;;;;30.75;17.40;;;6.80;80.40;;;;;;4856133;29;20055;-78
2022/01/14 04:25:40;;;;;;;38.38;17.95;;;6.80;80.40;;;;;;4875292;29;20050;-77
2022/01/14 04:28:08;;;;;;;27.38;15.60;;;6.80;80.40;;;;;;4860835;29;20037;-78
2022/01/14 04:30:34;;;;;;;28.95;15.82;;;6.80;80.40;;;;;;4874973;29;20050;-78
2022/01/14 04:33:00;;;;;;;27.88;15.82;;;6.80;80.40;;;;;;4846718;29;20042;-79
2022/01/14 04:35:27;;;;;;;27.50;15.65;;;6.80;80.40;;;;;;4878927;29;20069;-77
2022/01/14 04:37:52;;;;;;;32.17;17.00;;;6.80;80.40;;;;;;4864105;29;20607;-78
2022/01/14 04:40:18;;;;;;;27.30;15.73;;;6.80;80.40;;;;;;4860693;29;20065;-78
2022/01/14 04:42:45;;;;;;;30.42;16.23;;;6.80;80.40;;;;;;4862148;29;20042;-77
2022/01/14 04:45:25;;;;;;;30.90;17.30;;;6.80;80.30;;;;;;4864899;29;20049;-77
2022/01/14 04:47:50;;;;;;;28.65;17.75;;;6.80;80.30;;;;;;4859032;29;20517;-77
2022/01/14 04:50:18;;;;;;;25.05;15.77;;;6.80;80.30;;;;;;4864828;29;20045;-77
2022/01/14 04:52:45;;;;;;;29.23;16.67;;;6.80;80.30;;;;;;4864482;29;20056;-78
2022/01/14 04:55:13;;;;;;;27.15;16.55;;;6.80;80.30;;;;;;4886770;29;20045;-79
2022/01/14 04:57:39;;;;;;;32.95;17.58;;;6.80;80.20;;;;;;4870196;29;20046;-77
2022/01/14 05:00:10;;;;;;;30.75;17.48;;;6.80;80.20;;;;;;4861902;29;20057;-78
2022/01/14 05:02:36;;;;;;;30.15;17.92;;;6.80;80.20;;;;;;4864834;29;20053;-78
2022/01/14 05:05:03;;;;;;;29.02;16.77;;;6.80;80.20;;;;;;4864664;29;20065;-78
2022/01/14 05:07:29;;;;;;;28.50;17.75;;;6.80;80.20;;;;;;4844950;29;20129;-78
2022/01/14 05:12:33;;;;;;;;;;;6.80;80.20;;;;;;4847169;29;20061;-78
2022/01/14 05:14:59;;;;;;;32.83;18.90;;;6.80;80.00;;;;;;4864595;29;19924;-78
2022/01/14 05:17:25;;;;;;;29.48;16.85;;;6.70;80.20;;;;;;4864017;29;20045;-78
2022/01/14 05:19:50;;;;;;;30.27;18.20;;;6.70;80.10;;;;;;4863480;29;20045;-77
2022/01/14 05:22:17;;;;;;;24.30;15.88;;;6.70;80.10;;;;;;4864009;29;20049;-78
2022/01/14 05:24:43;;;;;;;32.30;17.60;;;6.70;80.10;;;;;;4863979;29;20053;-78
2022/01/14 05:27:09;;;;;;;28.70;17.90;;;6.80;80.30;;;;;;4863649;29;20045;-78
2022/01/14 05:29:35;;;;;;;27.48;17.10;;;6.70;80.20;;;;;;4863476;29;20037;-78
2022/01/14 05:32:03;;;;;;;31.02;17.88;;;6.70;80.20;;;;;;4863000;29;20076;-79
2022/01/14 05:34:33;;;;;;;22.67;15.85;;;6.70;80.20;;;;;;4878118;29;20088;-78
2022/01/14 05:37:01;;;;;;;24.73;16.02;;;6.70;80.60;;;;;;4846188;29;20092;-78
2022/01/14 05:39:27;;;;;;;33.50;17.95;;;6.70;80.20;;;;;;4863602;29;20053;-78
2022/01/14 05:41:53;;;;;;;28.90;17.55;;;6.70;80.10;;;;;;4877245;29;20054;-78
2022/01/14 05:44:19;;;;;;;28.02;16.58;;;6.70;80.20;;;;;;4863834;29;20363;-78
2022/01/14 05:46:46;;;;;;;24.88;17.15;;;6.70;80.20;;;;;;4863499;29;20425;-78
2022/01/14 05:49:12;;;;;;;26.65;17.23;;;6.70;80.20;;;;;;4847220;29;20049;-78
2022/01/14 05:51:37;;;;;;;26.40;17.65;;;6.70;80.20;;;;;;4862076;29;20553;-78
2022/01/14 05:54:03;;;;;;;27.60;16.67;;;6.70;80.20;;;;;;4863491;29;20045;-78
2022/01/14 05:56:29;;;;;;;28.08;17.20;;;6.70;80.20;;;;;;4863133;29;20454;-78
2022/01/14 05:58:55;;;;;;;33.40;18.00;;;6.70;80.20;;;;;;4848010;29;20049;-77
2022/01/14 06:01:21;;;;;;;28.13;16.88;;;6.80;80.30;;;;;;4863047;29;20406;-78
2022/01/14 06:03:47;;;;;;;28.50;17.95;;;6.70;80.20;;;;;;4862470;29;20551;-77
2022/01/14 06:06:12;;;;;;;27.48;16.55;;;6.70;80.20;;;;;;4863617;29;20042;-78
2022/01/14 06:08:38;;;;;;;28.20;16.60;;;6.70;80.20;;;;;;4876837;29;20053;-78
2022/01/14 06:11:04;;;;;;;25.48;16.40;;;6.70;80.20;;;;;;4863204;29;20048;-78
2022/01/14 06:13:29;;;;;;;28.80;15.80;;;6.70;80.10;;;;;;4862664;29;20045;-78
2022/01/14 06:15:55;;;;;;;25.10;16.33;;;6.70;80.10;;;;;;4877017;29;20059;-78
2022/01/14 06:18:21;;;;;;;27.58;16.23;;;6.70;80.10;;;;;;4862856;29;20057;-78
2022/01/14 06:20:48;;;;;;;22.13;15.63;;;6.80;80.10;;;;;;4862614;29;20073;-78
2022/01/14 06:23:14;;;;;;;28.50;15.88;;;6.70;80.10;;;;;;4862442;29;20153;-78
2022/01/14 06:25:39;;;;;;;24.92;16.30;;;6.70;80.10;;;;;;4846486;29;20049;-77
2022/01/14 06:28:05;;;;;;;24.35;15.38;;;6.90;80.20;;;;;;4862373;29;20045;-78
2022/01/14 06:30:31;;;;;;;26.08;15.15;;;6.70;80.00;;;;;;4862762;29;20421;-78
2022/01/14 06:32:56;;;;;;;25.92;15.90;;;6.70;80.10;;;;;;4876969;29;20061;-78
2022/01/14 06:35:23;;;;;;;24.80;17.25;;;6.70;80.10;;;;;;4861922;29;20876;-78
2022/01/14 06:37:49;;;;;;;24.55;15.38;;;6.70;80.10;;;;;;4845311;29;20500;-77
2022/01/14 06:40:15;;;;;;;24.63;16.25;;;6.70;80.10;;;;;;4877487;29;20033;-78
2022/01/14 06:42:41;;;;;;;25.75;15.82;;;6.70;80.10;;;;;;4862591;29;20059;-78
2022/01/14 06:45:08;;;;;;;25.85;16.75;;;6.70;80.10;;;;;;4876122;29;20536;-78
2022/01/14 06:47:33;;;;;;;25.33;16.77;;;6.70;80.20;;;;;;4846021;29;20059;-78
2022/01/14 06:49:59;;;;;;;25.88;17.73;;;6.70;80.20;;;;;;4845728;29;20541;-78
2022/01/14 06:52:25;;;;;;;26.08;16.50;;;6.70;80.20;;;;;;4862784;29;20053;-79
2022/01/14 06:54:51;;;;;;;22.73;15.98;;;6.70;80.20;;;;;;4853315;29;20175;-78
2022/01/14 06:57:17;;;;;;;30.65;17.90;;;6.70;80.10;;;;;;4862137;29;20124;-78
2022/01/14 06:59:43;;;;;;;25.40;15.68;;;6.70;80.20;;;;;;4842447;29;20041;-78
2022/01/14 07:02:10;;;;;;;34.85;18.20;;;6.70;80.10;;;;;;4860620;29;20510;-78
2022/01/14 07:04:36;;;;;;;26.75;16.38;;;6.70;80.10;;;;;;4861381;29;20169;-77
2022/01/14 07:07:03;;;;;;;29.88;18.35;;;6.70;80.10;;;;;;4859231;29;20422;-77
2022/01/14 07:09:30;;;;;;;26.02;18.30;;;6.70;80.10;;;;;;4845111;29;20052;-77
2022/01/14 07:11:58;;;;;;;25.50;16.35;;;6.70;80.10;;;;;;4861371;29;20056;-78
2022/01/14 07:14:25;;;;;;;30.45;17.90;;;6.70;80.10;;;;;;4861246;29;20041;-79
2022/01/14 07:16:50;;;;;;;23.75;17.48;;;6.70;80.10;;;;;;4840531;29;20052;-81
2022/01/14 07:19:19;;;;;;;23.73;15.82;;;6.70;80.00;;;;;;4861815;29;20474;-79
2022/01/14 07:21:44;;;;;;;24.17;15.77;;;6.70;80.00;;;;;;4830202;29;20436;-79
2022/01/14 07:24:10;;;;;;;25.77;17.58;;;6.80;80.10;;;;;;4859957;29;20049;-78
2022/01/14 07:26:36;;;;;;;24.60;17.20;;;6.80;80.10;;;;;;4858685;29;20123;-79
2022/01/14 07:29:02;;;;;;;24.67;16.92;;;6.70;80.10;;;;;;4859444;29;20565;-79
2022/01/14 07:31:28;;;;;;;24.08;16.55;;;6.70;80.10;;;;;;4861291;29;20053;-80
2022/01/14 07:33:54;;;;;;;25.98;16.88;;;6.80;80.10;;;;;;4845298;29;20451;-80
2022/01/14 07:36:19;;;;;;;23.83;16.77;;;6.80;80.10;;;;;;4843778;29;20057;-79
2022/01/14 07:38:45;;;;;;;22.20;15.93;;;6.80;80.10;;;;;;4860558;29;20041;-79
2022/01/14 07:41:11;;;;;;;26.67;16.35;;;6.80;80.10;;;;;;4838067;29;20137;-80
2022/01/14 07:43:36;;;;;;;25.45;16.50;;;6.80;80.10;;;;;;4827771;29;20045;-79
2022/01/14 07:46:03;;;;;;;28.92;17.33;;;6.80;80.10;;;;;;4846129;29;20054;-78
2022/01/14 07:48:29;;;;;;;29.48;17.60;;;6.80;80.10;;;;;;4860857;29;20553;-78
2022/01/14 07:50:55;;;;;;;24.92;17.30;;;6.80;80.40;;;;;;4835004;29;20121;-78
2022/01/14 07:53:20;;;;;;;29.15;17.38;;;6.80;80.00;;;;;;4861301;29;20085;-78
2022/01/14 07:55:47;;;;;;;28.58;17.58;;;6.80;80.00;;;;;;4843520;29;20072;-78
2022/01/14 07:58:13;;;;;;;23.70;16.15;;;6.90;80.10;;;;;;4831503;29;20562;-79
2022/01/14 08:00:39;;;;;;;26.63;17.67;;;6.90;80.10;;;;;;4844092;29;20130;-78
2022/01/14 08:03:05;;;;;;;22.67;15.95;;;6.90;80.10;;;;;;4875701;29;20085;-80
2022/01/14 08:05:31;;;;;;;27.23;16.77;;;6.90;80.00;;;;;;4837326;29;20077;-78
2022/01/14 08:08:03;;;;;;;27.05;16.30;;;6.90;80.00;;;;;;4856914;29;20049;-79
2022/01/14 08:10:29;;;;;;;28.80;16.58;;;6.90;80.00;;;;;;4834544;29;20069;-78
2022/01/14 08:12:54;;;;;;;28.70;16.52;;;6.90;79.90;;;;;;4854459;29;20050;-78
2022/01/14 08:15:20;;;;;;;29.90;16.45;;;6.90;79.90;;;;;;4857822;29;20041;-78
2022/01/14 08:17:46;;;;;;;23.15;16.10;;;6.90;79.90;;;;;;4854617;29;20088;-78
2022/01/14 08:20:11;;;;;;;30.77;16.33;;;6.90;79.80;;;;;;4840739;29;20143;-78
2022/01/14 08:22:37;;;;;;;29.63;15.40;;;6.90;79.80;;;;;;4842839;29;20406;-77
2022/01/14 08:25:04;;;;;;;28.10;15.52;;;6.90;79.80;;;;;;4860346;29;20064;-77
2022/01/14 08:27:30;;;;;;;26.65;15.32;;;6.90;79.80;;;;;;4846288;29;20053;-77
2022/01/14 08:29:55;;;;;;;30.88;16.00;;;7.00;79.90;;;;;;4861282;29;20041;-77
2022/01/14 08:32:22;;;;;;;25.30;14.77;;;6.90;79.80;;;;;;4860764;29;20486;-78
2022/01/14 08:34:49;;;;;;;25.30;15.57;;;6.90;79.80;;;;;;4861366;29;20057;-78
2022/01/14 08:37:15;;;;;;;24.48;15.23;;;6.90;79.80;;;;;;4861195;29;20121;-77
2022/01/14 08:39:40;;;;;;;25.83;14.45;;;7.00;79.90;;;;;;4844599;29;20069;-77
2022/01/14 08:42:11;;;;;;;21.77;14.95;;;7.00;79.90;;;;;;4860484;29;20097;-77
2022/01/14 08:44:37;;;;;;;19.25;13.55;;;7.00;80.00;;;;;;4860953;29;20363;-77
2022/01/14 08:47:09;;;;;;;27.02;13.48;;;7.00;80.00;;;;;;4844329;29;20090;-78
2022/01/14 08:49:43;;;;;;;27.42;14.13;;;7.00;80.00;;;;;;4861478;29;20054;-78
2022/01/14 08:52:11;;;;;;;23.07;14.00;;;7.00;80.00;;;;;;4860490;29;20045;-79
2022/01/14 08:54:37;;;;;;;20.20;12.52;;;7.00;79.90;;;;;;4844581;29;20302;-79
2022/01/14 08:57:03;;;;;;;25.52;13.70;;;7.00;79.90;;;;;;4860682;29;20438;-78
2022/01/14 08:59:30;;;;;;;18.83;12.15;;;7.00;80.00;;;;;;4844735;29;20489;-79
2022/01/14 09:01:56;;;;;;;18.33;12.38;;;7.00;80.00;;;;;;4838523;29;20054;-80
2022/01/14 09:04:22;;;;;;;22.55;12.30;;;7.00;80.00;;;;;;4850271;29;20070;-81
2022/01/14 09:06:48;;;;;;;20.42;12.07;;;7.00;80.00;;;;;;4861233;29;20045;-79
2022/01/14 09:09:14;;;;;;;22.77;11.63;;;7.10;80.00;;;;;;4839190;29;20049;-79
2022/01/14 09:11:40;;;;;;;20.02;12.25;;;7.10;80.00;;;;;;4826236;29;20046;-79
2022/01/14 09:14:06;;;;;;;24.88;11.73;;;7.10;80.00;;;;;;4858741;29;20049;-79
2022/01/14 09:16:32;;;;;;;24.25;12.30;;;7.10;80.00;;;;;;4860962;29;20147;-79
2022/01/14 09:18:57;;;;;;;27.63;11.50;;;7.10;80.00;;;;;;4861902;29;20097;-79
2022/01/14 09:21:23;;;;;;;20.73;10.95;;;7.10;80.10;;;;;;4863782;29;20405;-79
2022/01/14 09:23:51;;;;;;;22.45;10.95;;;7.40;80.20;;;;;;4851324;29;20141;-79
2022/01/14 09:26:18;;;;;;;20.05;11.10;;;7.10;80.00;;;;;;4859364;29;20548;-79
2022/01/14 09:28:44;;;;;;;20.33;9.68;;;7.20;80.10;;;;;;4847252;29;20080;-78
2022/01/14 09:31:10;;;;;;;15.15;10.60;;;7.20;80.10;;;;;;4867495;29;20049;-78
2022/01/14 09:33:37;;;;;;;21.00;10.55;;;7.20;80.10;;;;;;4878118;29;20057;-78
2022/01/14 09:36:04;;;;;;;16.98;10.27;;;7.20;80.10;;;;;;4867820;29;20104;-79
2022/01/14 09:38:31;;;;;;;20.13;10.27;;;7.20;80.10;;;;;;4862614;29;20462;-79
2022/01/14 09:40:57;;;;;;;16.92;10.45;;;7.20;80.10;;;;;;4847547;29;20397;-79
2022/01/14 09:43:24;;;;;;;16.20;9.45;;;7.30;80.20;;;;;;4857575;29;20061;-79
2022/01/14 09:45:52;;;;;;;17.67;9.57;;;7.30;80.10;;;;;;4845773;29;20049;-79
2022/01/14 09:48:17;;;;;;;15.45;9.23;;;7.30;80.10;;;;;;4832795;29;20049;-79
2022/01/14 09:50:44;;;;;;;20.90;9.98;;;7.30;80.10;;;;;;4863943;29;20049;-79
2022/01/14 09:53:16;;;;;;;21.02;9.15;;;7.30;80.10;;;;;;4859305;29;20116;-79
2022/01/14 09:55:43;;;;;;;20.65;9.93;;;7.40;80.20;;;;;;4863673;29;20469;-79
2022/01/14 09:58:09;;;;;;;21.70;8.55;;;7.40;80.10;;;;;;4862432;29;20102;-79
2022/01/14 10:00:36;;;;;;;18.48;8.15;;;7.40;80.10;;;;;;4856088;29;20050;-79
2022/01/14 10:03:21;;;;;;;16.88;9.30;;;7.40;80.10;;;;;;4846849;29;20125;-79
2022/01/14 10:05:51;;;;;;;21.50;8.60;;;7.50;80.10;;;;;;4863874;29;20061;-79
2022/01/14 10:08:21;;;;;;;20.38;7.50;;;7.50;80.10;;;;;;4860896;29;20234;-79
2022/01/14 10:10:58;;;;;;;15.07;7.10;;;7.50;80.10;;;;;;4845080;29;20050;-79
2022/01/14 10:13:30;;;;;;;15.50;7.28;;;7.50;80.10;;;;;;4828802;29;20639;-79
2022/01/14 10:16:16;;;;;;;15.18;8.13;;;7.50;80.00;;;;;;4828638;29;20050;-79
2022/01/14 10:18:49;;;;;;;10.40;5.90;;;7.60;80.00;;;;;;4829299;29;20053;-79
2022/01/14 10:21:15;;;;;;;15.02;6.68;;;7.60;80.00;;;;;;4828757;29;20129;-79
2022/01/14 10:23:53;;;;;;;12.02;6.05;;;7.60;79.90;;;;;;4851737;29;20557;-79
2022/01/14 10:26:20;;;;;;;15.23;5.85;;;7.70;80.00;;;;;;4828556;29;20049;-79
2022/01/14 10:28:59;;;;;;;11.82;5.80;;;7.80;79.90;;;;;;4845349;29;20041;-79
2022/01/14 10:31:33;;;;;;;15.13;6.72;;;7.80;79.90;;;;;;4829747;29;20133;-79
2022/01/14 10:34:16;;;;;;;10.32;5.38;;;7.70;79.80;;;;;;4838362;29;20411;-79
2022/01/14 10:36:46;;;;;;;15.98;5.90;;;7.70;79.80;;;;;;4826395;29;20058;-79
2022/01/14 10:39:26;;;;;;;13.50;5.63;;;7.80;79.80;;;;;;4827452;29;20069;-79
2022/01/14 10:41:52;;;;;;;14.15;5.20;;;7.80;79.70;;;;;;4840475;29;20125;-79
2022/01/14 10:44:34;;;;;;;12.57;5.28;;;7.90;79.60;;;;;;4825618;29;20038;-79
2022/01/14 10:47:18;;;;;;;13.23;4.50;;;7.80;79.40;;;;;;4855733;29;20055;-79
2022/01/14 10:49:46;;;;;;;12.87;4.73;;;7.90;79.40;;;;;;4833032;29;20061;-81
2022/01/14 10:52:21;;;;;;;10.93;4.40;;;7.90;79.40;;;;;;4844392;29;20287;-81
2022/01/14 10:54:53;;;;;;;13.73;4.85;;;7.90;79.30;;;;;;4842719;29;20050;-82
2022/01/14 10:57:23;;;;;;;11.48;4.22;;;7.90;79.30;;;;;;4843279;29;20046;-82
2022/01/14 10:59:50;;;;;;;17.38;4.63;;;7.90;79.30;;;;;;4841779;29;20459;-79
2022/01/14 11:02:38;;;;;;;13.77;4.47;;;8.00;79.30;;;;;;4873327;29;20093;-79
2022/01/14 11:05:10;;;;;;;12.73;4.47;;;8.00;79.20;;;;;;4837197;29;20046;-79
2022/01/14 11:07:36;;;;;;;14.02;4.00;;;8.00;79.20;;;;;;4873093;29;20053;-79
2022/01/14 11:10:16;;;;;;;15.88;4.85;;;8.00;79.10;;;;;;4842061;29;20053;-79
2022/01/14 11:12:43;;;;;;;11.52;4.45;;;8.10;79.10;;;;;;4872653;29;20046;-80
2022/01/14 11:15:10;;;;;;;11.45;4.65;;;8.10;79.00;;;;;;4842261;29;20046;-79
2022/01/14 11:17:40;;;;;;;13.60;5.57;;;8.10;78.90;;;;;;4842530;29;20390;-79
2022/01/14 11:20:08;;;;;;;14.38;4.55;;;8.10;78.80;;;;;;4872079;29;20106;-79
2022/01/14 11:25:19;;;;;;;12.98;4.13;;;8.10;78.70;;;;;;4834925;29;20494;-79
2022/01/14 11:27:57;;;;;;;7.93;4.00;;;8.20;78.80;;;;;;4837912;29;20049;-79
2022/01/14 11:30:35;;;;;;;14.50;4.60;;;8.20;78.70;;;;;;4841515;29;20462;-79
2022/01/14 11:33:03;;;;;;;11.43;4.32;;;8.20;78.50;;;;;;4841292;29;20091;-80
2022/01/14 11:35:31;;;;;;;12.45;4.10;;;8.20;78.40;;;;;;4858175;29;20105;-79
2022/01/14 11:37:57;;;;;;;12.30;3.80;;;8.20;78.40;;;;;;4843340;29;20049;-79
2022/01/14 11:40:23;;;;;;;9.27;3.58;;;8.20;78.30;;;;;;4843921;29;20077;-79
2022/01/14 11:43:01;;;;;;;8.68;3.08;;;8.20;78.20;;;;;;4860512;29;20041;-79
2022/01/14 11:45:42;;;;;;;13.48;3.70;;;8.20;78.20;;;;;;4872031;29;20049;-80
2022/01/14 11:48:31;;;;;;;11.75;4.30;;;8.20;77.90;;;;;;4860657;29;20049;-79
2022/01/14 11:51:05;;;;;;;12.27;3.10;;;8.20;77.80;;;;;;4860127;29;20060;-79
2022/01/14 11:53:40;;;;;;;11.82;4.13;;;8.20;77.90;;;;;;4843884;29;20048;-79
2022/01/14 11:56:27;;;;;;;13.35;3.70;;;8.20;77.90;;;;;;4842860;29;20053;-79
2022/01/14 11:58:53;;;;;;;15.05;4.47;;;8.20;77.90;;;;;;4860367;29;20049;-83
2022/01/14 12:01:34;;;;;;;13.88;4.22;;;8.20;78.00;;;;;;4854728;29;20410;-83
2022/01/14 12:04:01;;;;;;;12.60;3.90;;;8.20;77.90;;;;;;4844432;29;20053;-83
2022/01/14 12:06:50;;;;;;;11.30;3.20;;;8.20;77.90;;;;;;4858409;29;20113;-83
2022/01/14 12:09:19;;;;;;;9.38;3.50;;;8.20;77.90;;;;;;4860675;29;20053;-84
2022/01/14 12:11:45;;;;;;;13.48;3.42;;;8.40;78.10;;;;;;4843892;29;20042;-84
2022/01/14 12:14:12;;;;;;;9.50;3.38;;;8.20;78.00;;;;;;4844170;29;20371;-84
2022/01/14 12:16:49;;;;;;;11.27;3.15;;;8.30;78.10;;;;;;4828068;29;20046;-83
2022/01/14 12:19:18;;;;;;;11.32;3.22;;;8.20;78.10;;;;;;4860825;29;20053;-83
2022/01/14 12:21:50;;;;;;;11.98;4.07;;;8.20;78.10;;;;;;4842803;29;20075;-83
2022/01/14 12:24:18;;;;;;;11.35;3.45;;;8.20;78.10;;;;;;4843693;29;20057;-83
2022/01/14 12:27:08;;;;;;;19.10;4.40;;;8.30;78.20;;;;;;4845187;29;20050;-83
2022/01/14 12:29:46;;;;;;;10.07;3.75;;;8.20;78.10;;;;;;4826763;29;20425;-83
2022/01/14 12:32:13;;;;;;;10.05;3.78;;;8.20;78.20;;;;;;4836626;29;20065;-84
2022/01/14 12:34:44;;;;;;;8.30;3.72;;;8.20;78.20;;;;;;4842674;29;20090;-83
2022/01/14 12:37:21;;;;;;;9.98;3.20;;;8.20;78.20;;;;;;4826976;29;20140;-83
2022/01/14 12:39:49;;;;;;;7.93;3.55;;;8.20;78.60;;;;;;4826361;29;20057;-84
2022/01/14 12:42:17;;;;;;;12.45;4.20;;;8.20;78.20;;;;;;4830657;29;20401;-84
2022/01/14 12:44:45;;;;;;;10.25;4.40;;;8.20;78.20;;;;;;4843694;29;20081;-82
2022/01/14 12:47:18;;;;;;;15.32;4.55;;;8.20;78.10;;;;;;4840652;29;20050;-83
2022/01/14 12:49:44;;;;;;;11.50;4.30;;;8.20;78.10;;;;;;4868717;29;20057;-83
2022/01/14 12:52:27;;;;;;;12.13;4.35;;;8.20;78.10;;;;;;4843029;29;20046;-83
2022/01/14 12:54:53;;;;;;;10.93;3.95;;;8.20;78.10;;;;;;4863789;29;20060;-83
2022/01/14 12:57:19;;;;;;;12.00;3.80;;;8.20;78.10;;;;;;4863472;29;20041;-79
2022/01/14 12:59:47;;;;;;;9.77;3.90;;;8.20;78.10;;;;;;4877380;29;20056;-80
2022/01/14 13:02:22;;;;;;;15.93;4.03;;;8.10;78.10;;;;;;4859323;29;20120;-81
2022/01/14 13:05:00;;;;;;;8.00;3.40;;;8.20;78.20;;;;;;4864644;29;20045;-81
2022/01/14 13:07:26;;;;;;;16.25;4.30;;;8.20;78.20;;;;;;4863117;29;20054;-78
2022/01/14 13:09:52;;;;;;;13.80;4.05;;;8.20;78.20;;;;;;4863410;29;20091;-77